Wimbledon, North Dakota
Current Conditions -  °F | °C
As of 10:56 AM on Saturday 22 Nov 2014 (Local Time) from KJMS Reporting Station
Clear Clear  
Wind Chill: 31°   Ceiling: Unl
Heat Index: 38°   Visibility: 10mi
Dew Point: 27°   Wind: 9mph
Humidity: 65%   Direction: 160°SSE
Pressure: 29.52"   Gusts: NA
Location:  47.17°N, 98.46°W
Report Text: KJMS 221656Z AUTO 16008KT 10SM CLR 03/M03 A2952 RMK AO2 SLP009 T00331028
Loading
Personal Weather Stations






























Interactive Weather Map New forecast layout! Learn more

10-Day Weather Forecast

Advertisements
Track Severe Weather on mobile